createdAt,value
2023-03-20T00:07:47.652Z,9.61
2023-03-20T00:17:50.282Z,9.57
2023-03-20T00:27:54.302Z,9.65
2023-03-20T00:37:58.309Z,9.70
2023-03-20T00:48:03.567Z,9.70
2023-03-20T00:58:06.768Z,9.80
2023-03-20T01:08:19.266Z,9.68
2023-03-20T01:18:23.020Z,9.42
2023-03-20T01:28:33.475Z,9.48
2023-03-20T01:38:36.301Z,9.32
2023-03-20T01:49:00.511Z,9.23
2023-03-20T01:59:06.099Z,9.25
2023-03-20T02:09:10.453Z,9.11
2023-03-20T02:19:24.412Z,8.96
2023-03-20T02:30:08.605Z,9.03
2023-03-20T02:40:20.485Z,8.95
2023-03-20T02:50:33.116Z,8.93
2023-03-20T03:00:41.184Z,8.82
2023-03-20T03:10:46.792Z,8.90
2023-03-20T03:20:57.505Z,9.02
2023-03-20T03:31:01.932Z,9.19
2023-03-20T03:41:21.380Z,9.24
2023-03-20T03:51:26.748Z,9.12
2023-03-20T04:01:35.352Z,9.20
2023-03-20T04:11:38.196Z,8.88
2023-03-20T04:21:42.270Z,9.05
2023-03-20T04:31:44.908Z,9.10
2023-03-20T04:41:48.948Z,9.10
2023-03-20T04:51:51.600Z,8.91
2023-03-20T05:01:55.623Z,9.00
2023-03-20T05:11:58.395Z,9.11
2023-03-20T05:22:02.608Z,9.22
2023-03-20T05:32:06.062Z,9.14
2023-03-20T05:42:10.041Z,9.10
2023-03-20T05:52:13.824Z,9.09
2023-03-20T06:02:17.985Z,9.33
2023-03-20T06:12:20.662Z,9.15
2023-03-20T06:22:24.647Z,9.17
2023-03-20T06:32:27.341Z,9.38
2023-03-20T06:42:31.438Z,9.35
2023-03-20T06:52:34.176Z,9.42
2023-03-20T07:02:38.675Z,9.40
2023-03-20T07:12:41.380Z,9.63
2023-03-20T07:22:46.613Z,9.54
2023-03-20T07:32:49.317Z,9.71
2023-03-20T07:42:53.393Z,9.83
2023-03-20T07:52:56.007Z,9.89
2023-03-20T08:03:00.258Z,9.76
2023-03-20T08:13:02.967Z,10.03
2023-03-20T08:23:07.750Z,10.04
2023-03-20T08:33:11.004Z,10.13
2023-03-20T08:43:15.001Z,10.56
2023-03-20T08:53:17.885Z,10.64
2023-03-20T09:03:22.793Z,10.60
2023-03-20T09:13:27.940Z,10.99
2023-03-20T09:23:35.418Z,11.22
2023-03-20T09:33:38.922Z,11.28
2023-03-20T09:43:55.195Z,12.08
2023-03-20T09:54:03.610Z,11.68
2023-03-20T10:04:10.441Z,12.41
2023-03-20T10:14:22.504Z,11.98
2023-03-20T10:24:30.523Z,12.51
2023-03-20T10:34:49.503Z,13.74
2023-03-20T10:44:59.126Z,13.67
2023-03-20T10:55:06.288Z,13.51
2023-03-20T11:05:22.190Z,13.90
2023-03-20T11:15:27.069Z,13.32
2023-03-20T11:25:34.498Z,12.78
2023-03-20T11:35:37.226Z,12.80
2023-03-20T11:45:43.134Z,13.33
2023-03-20T11:55:56.751Z,12.07
2023-03-20T12:06:02.714Z,11.93
2023-03-20T12:16:09.154Z,11.96
2023-03-20T12:26:16.091Z,11.88
2023-03-20T12:36:26.178Z,11.84
2023-03-20T12:46:38.309Z,11.51
2023-03-20T12:56:55.715Z,10.92
2023-03-20T13:07:01.985Z,11.11
2023-03-20T13:17:11.584Z,10.94
2023-03-20T13:27:31.203Z,10.77
2023-03-20T13:37:36.778Z,10.83
2023-03-20T13:47:40.940Z,10.45
2023-03-20T13:58:02.637Z,10.71
2023-03-20T14:08:32.275Z,10.82
2023-03-20T14:18:35.014Z,10.63
2023-03-20T14:28:54.193Z,10.19
2023-03-20T14:39:10.948Z,9.89
2023-03-20T14:49:27.244Z,9.63
2023-03-20T14:59:33.560Z,10.12
2023-03-20T15:09:41.540Z,10.04
2023-03-20T15:19:44.381Z,10.07
2023-03-20T15:29:53.650Z,10.08
2023-03-20T15:39:59.277Z,9.79
2023-03-20T15:50:04.789Z,9.81
2023-03-20T16:00:11.372Z,10.04
2023-03-20T16:10:23.749Z,9.27
2023-03-20T16:20:29.739Z,9.10
2023-03-20T16:30:40.817Z,9.01
2023-03-20T16:40:44.220Z,8.94
2023-03-20T16:50:53.974Z,8.89
2023-03-20T17:01:01.201Z,8.81
2023-03-20T17:11:12.143Z,9.06
2023-03-20T17:21:15.799Z,9.03
2023-03-20T17:31:20.581Z,9.01
2023-03-20T17:41:26.722Z,8.97
2023-03-20T17:51:30.993Z,8.89
2023-03-20T18:01:33.971Z,9.08
2023-03-20T18:11:43.861Z,8.94
2023-03-20T18:21:46.601Z,9.07
2023-03-20T18:31:51.070Z,8.88
2023-03-20T18:41:53.731Z,8.94
2023-03-20T18:51:57.748Z,8.93
2023-03-20T19:02:00.672Z,8.98
2023-03-20T19:12:05.036Z,9.01
2023-03-20T19:22:13.094Z,9.09
2023-03-20T19:32:19.811Z,8.88
2023-03-20T19:42:50.769Z,8.91
2023-03-20T19:52:46.380Z,8.85
2023-03-20T20:02:49.201Z,8.86
2023-03-20T20:12:53.306Z,8.87
2023-03-20T20:22:56.276Z,9.06
2023-03-20T20:33:05.006Z,8.90
2023-03-20T20:43:10.307Z,9.00
2023-03-20T20:53:14.581Z,9.02
2023-03-20T21:03:17.270Z,9.06
2023-03-20T21:13:21.784Z,9.14
2023-03-20T21:23:26.111Z,9.05
2023-03-20T21:33:31.081Z,9.18
2023-03-20T21:43:34.435Z,9.16
2023-03-20T22:46:43.814Z,9.41
2023-03-20T22:56:40.259Z,9.46
2023-03-20T23:06:43.030Z,9.47
2023-03-20T23:16:47.177Z,9.67
2023-03-20T23:26:50.028Z,9.51
2023-03-20T23:36:54.036Z,9.68
2023-03-20T23:46:56.674Z,9.70
2023-03-20T23:57:00.916Z,9.76
